Washington, PA

12:13 PM EDT on July 23, 2017 (GMT -0400)
Washington County

Weather History for KAFJ - October, 2013

Change the Weather History Date:

Thursday, October 17, 2013

  Actual Average Record
Temperature  
Mean Temperature 54 °F -  
Max Temperature 60 °F 58 °F 84 °F (2007)
Min Temperature 48 °F 38 °F 28 °F (2015)
Degree Days  
Heating Degree Days 11    
Growing Degree Days 4 (Base 50)    
Moisture  
Dew Point 50 °F    
Average Humidity 89    
Maximum Humidity 94    
Minimum Humidity 77    
Precipitation  
Precipitation 0.56 in - - ()
Sea Level Pressure  
Sea Level Pressure 29.89 in    
Wind  
Wind Speed 4 mph (West)    
Max Wind Speed 13 mph    
Max Gust Speed 23 mph    
Visibility 9 miles    
Events      
Averages and records for this station are not official NWS values.
T = Trace of Precipitation, MM = Missing Value Source: NWS Daily Summary

Daily Weather History Graph

Daily Weather History Graph

Search for Another Location

Airport or City:

Trip Planner

Search our weather history database for the weather conditions in past years. The results will help you decide how hot, cold, wet, or windy it might be!

Date:

Astronomy

Oct. 17, 2013 Rise Set
Actual Time 7:34 AM EDT 6:38 PM EDT
Civil Twilight 7:06 AM EDT 7:05 PM EDT
Nautical Twilight 6:35 AM EDT 7:37 PM EDT
Astronomical Twilight 6:03 AM EDT 8:08 PM EDT
Moon 5:51 PM EDT (10/17) 6:04 AM EDT (10/17)
Length of Visible Light 11h 58m
Length of Day
11h 04m
Waxing Gibbous, 98% of the Moon is Illuminated
Oct 17
Waxing Gibbous
Oct 18
Full
Oct 26
Last Quarter
Nov 3
New
Nov 10
First Quarter

Hourly Weather History & Observations

Time (EDT) Temp. Dew Point Humidity Pressure Visibility Wind Dir Wind Speed Gust Speed Precip Events Conditions
12:15 AM 60.8 °F 59.0 °F 94% 29.93 in 4.0 mi SW 3.5 mph - N/A   Overcast
12:35 AM 60.8 °F 59.0 °F 94% 29.93 in 6.0 mi WSW 5.8 mph - 0.01 in   Overcast
12:55 AM 60.8 °F 57.2 °F 88% 29.93 in 7.0 mi WSW 8.1 mph - 0.02 in   Mostly Cloudy
1:15 AM 60.8 °F 57.2 °F 88% 29.93 in 10.0 mi West 4.6 mph - N/A   Overcast
1:35 AM 59.0 °F 57.2 °F 94% 29.93 in 10.0 mi WSW 3.5 mph - N/A   Overcast
1:55 AM 59.0 °F 57.2 °F 94% 29.93 in 10.0 mi Calm Calm - N/A   Overcast
2:15 AM 59.0 °F 57.2 °F 94% 29.93 in 9.0 mi NNW 6.9 mph - N/A   Overcast
2:35 AM 57.2 °F 53.6 °F 88% 29.93 in 10.0 mi NNW 3.5 mph - N/A   Overcast
2:55 AM 57.2 °F 51.8 °F 82% 29.93 in 10.0 mi NNW 3.5 mph - N/A   Overcast
3:15 AM 55.4 °F 51.8 °F 88% 29.93 in 10.0 mi Calm Calm - N/A   Overcast
3:35 AM 55.4 °F 51.8 °F 88% 29.93 in 10.0 mi North 4.6 mph - N/A   Overcast
3:55 AM 55.4 °F 51.8 °F 88% 29.93 in 10.0 mi Calm Calm - N/A   Overcast
4:15 AM 55.4 °F 50.0 °F 82% 29.93 in 10.0 mi NNE 4.6 mph - N/A   Overcast
4:35 AM 55.4 °F 48.2 °F 77% 29.93 in 10.0 mi Calm Calm - N/A   Overcast
4:55 AM 53.6 °F 48.2 °F 82% 29.93 in 10.0 mi NNW 3.5 mph - N/A   Overcast
5:15 AM 53.6 °F 50.0 °F 88% 29.93 in 10.0 mi Calm Calm - N/A   Overcast
5:35 AM 53.6 °F 48.2 °F 82% 29.93 in 10.0 mi Calm Calm - N/A   Overcast
5:55 AM 53.6 °F 48.2 °F 82% 29.93 in 10.0 mi Calm Calm - N/A   Overcast
6:15 AM 53.6 °F 50.0 °F 88% 29.93 in 10.0 mi Calm Calm - N/A   Overcast
6:35 AM 53.6 °F 51.8 °F 94% 29.93 in 10.0 mi Calm Calm - N/A   Overcast
6:55 AM 53.6 °F 50.0 °F 88% 29.93 in 10.0 mi Calm Calm - N/A   Overcast
7:15 AM 53.6 °F 50.0 °F 88% 29.93 in 10.0 mi NNW 3.5 mph - N/A   Overcast
7:35 AM 53.6 °F 50.0 °F 88% 29.93 in 10.0 mi Calm Calm - N/A   Overcast
7:55 AM 53.6 °F 48.2 °F 82% 29.92 in 10.0 mi Calm Calm - N/A   Overcast
8:15 AM 53.6 °F 48.2 °F 82% 29.92 in 10.0 mi NE 3.5 mph - N/A   Overcast
8:35 AM 53.6 °F 48.2 °F 82% 29.92 in 10.0 mi Calm Calm - N/A   Overcast
8:55 AM 53.6 °F 50.0 °F 88% 29.93 in 10.0 mi Calm Calm - N/A   Overcast
9:15 AM 53.6 °F 48.2 °F 82% 29.93 in 10.0 mi Calm Calm - N/A   Overcast
9:35 AM 55.4 °F 50.0 °F 82% 29.93 in 10.0 mi Calm Calm - N/A   Overcast
9:55 AM 55.4 °F 50.0 °F 82% 29.92 in 10.0 mi Calm Calm - N/A   Overcast
10:15 AM 55.4 °F 48.2 °F 77% 29.92 in 10.0 mi Calm Calm - N/A   Overcast
10:35 AM 55.4 °F 48.2 °F 77% 29.91 in 10.0 mi Calm Calm - N/A   Overcast
10:55 AM 57.2 °F 50.0 °F 77% 29.90 in 3.0 mi East 4.6 mph - N/A   Overcast
11:15 AM 55.4 °F 51.8 °F 88% 29.90 in 10.0 mi ESE 3.5 mph - N/A   Overcast
11:35 AM 55.4 °F 51.8 °F 88% 29.89 in 8.0 mi ESE 4.6 mph - 0.01 in   Overcast
11:55 AM 55.4 °F 51.8 °F 88% 29.88 in 10.0 mi ESE 6.9 mph - 0.01 in   Overcast
12:15 PM 55.4 °F 51.8 °F 88% 29.88 in 10.0 mi Calm Calm - N/A   Overcast
12:35 PM 55.4 °F 51.8 °F 88% 29.87 in 6.0 mi Calm Calm - 0.01 in   Overcast
12:55 PM 55.4 °F 53.6 °F 94% 29.85 in 9.0 mi Calm Calm - 0.02 in   Overcast
1:15 PM 55.4 °F 53.6 °F 94% 29.84 in 9.0 mi Calm Calm - N/A   Overcast
1:35 PM 55.4 °F 53.6 °F 94% 29.82 in 10.0 mi Calm Calm - N/A   Overcast
1:55 PM 55.4 °F 53.6 °F 94% 29.80 in 5.0 mi East 4.6 mph - 0.01 in   Overcast
2:15 PM 55.4 °F 53.6 °F 94% 29.79 in 5.0 mi ENE 4.6 mph - N/A   Overcast
2:35 PM 55.4 °F 53.6 °F 94% 29.77 in 3.0 mi ENE 4.6 mph - 0.01 in   Overcast
2:55 PM 55.4 °F 53.6 °F 94% 29.75 in 1.8 mi ENE 5.8 mph - 0.04 in   Overcast
3:15 PM 55.4 °F 53.6 °F 94% 29.73 in 1.0 mi Calm Calm - N/A   Overcast
3:35 PM 55.4 °F 53.6 °F 94% 29.74 in 3.0 mi WNW 5.8 mph - 0.01 in   Overcast
3:55 PM 55.4 °F 53.6 °F 94% 29.76 in 5.0 mi WNW 8.1 mph 17.3 mph 0.22 in   Overcast
4:15 PM 55.4 °F 53.6 °F 94% 29.79 in 5.0 mi West 12.7 mph 16.1 mph 0.06 in   Overcast
4:35 PM 53.6 °F 50.0 °F 88% 29.78 in 8.0 mi NW 12.7 mph 23.0 mph 0.19 in   Overcast
4:55 PM 51.8 °F 48.2 °F 88% 29.79 in 10.0 mi West 8.1 mph 17.3 mph 0.20 in   Overcast
5:15 PM 51.8 °F 48.2 °F 88% 29.77 in 8.0 mi Calm Calm - 0.02 in   Mostly Cloudy
5:35 PM 51.8 °F 48.2 °F 88% 29.78 in 10.0 mi NW 3.5 mph - 0.02 in   Overcast
5:55 PM 51.8 °F 48.2 °F 88% 29.80 in 10.0 mi West 5.8 mph - 0.03 in   Overcast
6:15 PM 51.8 °F 48.2 °F 88% 29.82 in 10.0 mi West 9.2 mph - N/A   Overcast
6:35 PM 51.8 °F 48.2 °F 88% 29.84 in 10.0 mi West 8.1 mph - N/A   Overcast
6:55 PM 50.0 °F 46.4 °F 87% 29.85 in 10.0 mi West 8.1 mph 17.3 mph N/A   Overcast
7:15 PM 50.0 °F 46.4 °F 87% 29.86 in 10.0 mi WSW 8.1 mph - N/A   Overcast
7:35 PM 48.2 °F 46.4 °F 93% 29.88 in 10.0 mi WSW 8.1 mph - N/A   Overcast
7:55 PM 48.2 °F 46.4 °F 93% 29.89 in 10.0 mi WSW 6.9 mph - N/A   Mostly Cloudy
8:15 PM 48.2 °F 46.4 °F 93% 29.90 in 10.0 mi WSW 6.9 mph - N/A   Overcast
8:35 PM 48.2 °F 46.4 °F 93% 29.91 in 10.0 mi SW 6.9 mph - N/A   Overcast
8:55 PM 48.2 °F 46.4 °F 93% 29.91 in 10.0 mi SW 5.8 mph - N/A   Overcast
9:15 PM 48.2 °F 46.4 °F 93% 29.92 in 10.0 mi SW 8.1 mph - N/A   Overcast
9:35 PM 48.2 °F 46.4 °F 93% 29.92 in 10.0 mi SW 9.2 mph - N/A   Overcast
9:55 PM 48.2 °F 46.4 °F 93% 29.93 in 10.0 mi SW 6.9 mph - N/A   Overcast
10:15 PM 48.2 °F 46.4 °F 93% 29.93 in 10.0 mi WSW 6.9 mph - N/A   Overcast
10:35 PM 48.2 °F 46.4 °F 93% 29.93 in 10.0 mi SW 5.8 mph - N/A   Overcast
10:55 PM 48.2 °F 46.4 °F 93% 29.93 in 10.0 mi SW 6.9 mph - N/A   Overcast
11:15 PM 48.2 °F 46.4 °F 93% 29.93 in 10.0 mi WSW 6.9 mph - N/A   Mostly Cloudy
11:35 PM 48.2 °F 46.4 °F 93% 29.93 in 5.0 mi SW 8.1 mph - 0.01 in   Overcast
11:55 PM 48.2 °F 46.4 °F 93% 29.93 in 7.0 mi SW 8.1 mph - 0.01 in   Overcast